^^
Station Historical Data
 
Daily Summary for October 16, 2021 Units:  English    Metric   Both
Daily Weekly Monthly Yearly
  Current: High: Low: Average:
Temperature: 51.7 °F 58.7 °F 51.7 °F 57.1 °F
Dew Point: 47.3 °F 55 °F 47.1 °F 53.1 °F
Humidity: 85% 88% 83% 86%
Wind Speed: 7mph 9mph 1mph 3.5mph
Wind Gust: 7mph 15mph - -
WindNW - - West
Pressure: 29.72 in 29.75 in 29.69 in -
Precipitation: 0.11 in      
 
 
Tabular Data for October 16, 2021
Time Temperature Dew Point Pressure Wind Wind Speed Wind Gust Humidity Rainfall Rate (Hourly) solar
00:00 58.4 °F 54.9 °F 29.75 in NNW 1 mph 1 mph 88% 0.00 in 0 W/m2
00:05 58.5 °F 55 °F 29.74 in NNW 1 mph 2 mph 88% 0.00 in 0 W/m2
00:10 58.5 °F 55 °F 29.74 in NW 2 mph 2 mph 88% 0.00 in 0 W/m2
00:15 58.5 °F 55 °F 29.74 in NW 2 mph 2 mph 88% 0.00 in 0 W/m2
00:20 58.4 °F 54.9 °F 29.73 in NNW 2 mph 2 mph 88% 0.00 in 0 W/m2
00:25 58.4 °F 54.9 °F 29.73 in NNW 2 mph 2 mph 88% 0.00 in 0 W/m2
00:30 58.3 °F 54.8 °F 29.73 in NNW 2 mph 3 mph 88% 0.00 in 0 W/m2
00:35 58.3 °F 54.4 °F 29.73 in WSW 2 mph 3 mph 87% 0.00 in 0 W/m2
00:40 58.2 °F 54.3 °F 29.72 in NNE 2 mph 2 mph 87% 0.00 in 0 W/m2
00:45 58.2 °F 54.3 °F 29.72 in NNW 2 mph 3 mph 87% 0.00 in 0 W/m2
00:50 58.2 °F 54.3 °F 29.72 in North 2 mph 4 mph 87% 0.00 in 0 W/m2
00:55 58.2 °F 54.3 °F 29.72 in WNW 2 mph 4 mph 87% 0.00 in 0 W/m2
01:00 58.3 °F 54.4 °F 29.72 in WNW 2 mph 2 mph 87% 0.00 in 0 W/m2
01:05 58.3 °F 54.4 °F 29.72 in NE 1 mph 2 mph 87% 0.00 in 0 W/m2
01:10 58.4 °F 54.5 °F 29.71 in NNW 2 mph 3 mph 87% 0.00 in 0 W/m2
01:15 58.4 °F 54.5 °F 29.70 in WSW 2 mph 3 mph 87% 0.00 in 0 W/m2
01:20 58.3 °F 54.1 °F 29.70 in SW 2 mph 2 mph 86% 0.00 in 0 W/m2
01:25 58.3 °F 54.1 °F 29.71 in NNE 2 mph 3 mph 86% 0.00 in 0 W/m2
01:30 58.4 °F 54.2 °F 29.69 in NW 3 mph 3 mph 86% 0.00 in 0 W/m2
01:35 58.6 °F 54.7 °F 29.70 in NNW 3 mph 3 mph 87% 0.00 in 0 W/m2
01:40 58.7 °F 54.8 °F 29.71 in NNW 3 mph 3 mph 87% 0.00 in 0 W/m2
01:45 58.6 °F 54.7 °F 29.71 in NNW 3 mph 3 mph 87% 0.00 in 0 W/m2
01:50 58.7 °F 54.8 °F 29.71 in NNW 3 mph 3 mph 87% 0.00 in 0 W/m2
01:55 58.6 °F 54.7 °F 29.72 in NW 2 mph 3 mph 87% 0.00 in 0 W/m2
02:00 58.6 °F 54.7 °F 29.72 in NE 2 mph 3 mph 87% 0.00 in 0 W/m2
02:05 58.5 °F 54.6 °F 29.72 in ENE 2 mph 3 mph 87% 0.00 in 0 W/m2
02:10 58.5 °F 54.6 °F 29.72 in North 2 mph 4 mph 87% 0.00 in 0 W/m2
02:15 58.4 °F 54.2 °F 29.73 in NNW 2 mph 4 mph 86% 0.00 in 0 W/m2
02:20 58.4 °F 54.2 °F 29.73 in NNW 2 mph 2 mph 86% 0.00 in 0 W/m2
02:25 58.3 °F 54.1 °F 29.73 in NNW 2 mph 5 mph 86% 0.00 in 0 W/m2
02:30 58.3 °F 54.1 °F 29.73 in NNW 3 mph 3 mph 86% 0.00 in 0 W/m2
02:35 58.3 °F 54.1 °F 29.72 in North 2 mph 3 mph 86% 0.00 in 0 W/m2
02:40 58.3 °F 54.1 °F 29.72 in WNW 2 mph 4 mph 86% 0.00 in 0 W/m2
02:45 58.3 °F 54.1 °F 29.72 in North 2 mph 4 mph 86% 0.00 in 0 W/m2
02:50 58.3 °F 54.1 °F 29.72 in WNW 2 mph 6 mph 86% 0.00 in 0 W/m2
02:55 58.2 °F 54 °F 29.72 in North 3 mph 7 mph 86% 0.00 in 0 W/m2
03:00 58.1 °F 53.9 °F 29.72 in ENE 3 mph 3 mph 86% 0.13 in 0 W/m2
03:05 58 °F 53.8 °F 29.72 in West 3 mph 4 mph 86% 0.20 in 0 W/m2
03:10 58 °F 54.2 °F 29.72 in NNW 4 mph 4 mph 87% 0.08 in 0 W/m2
03:15 57.8 °F 54 °F 29.72 in NW 4 mph 7 mph 87% 0.05 in 0 W/m2
03:20 57.6 °F 53.8 °F 29.71 in NNE 4 mph 4 mph 87% 0.04 in 0 W/m2
03:25 57.4 °F 53.6 °F 29.70 in NNW 4 mph 4 mph 87% 0.04 in 0 W/m2
03:30 57.2 °F 53.4 °F 29.70 in NW 4 mph 9 mph 87% 0.04 in 0 W/m2
03:35 57.1 °F 53.6 °F 29.70 in NW 4 mph 9 mph 88% 0.04 in 0 W/m2
03:40 56.9 °F 53.4 °F 29.70 in NW 4 mph 4 mph 88% 0.00 in 0 W/m2
03:45 56.6 °F 53.1 °F 29.71 in WNW 4 mph 4 mph 88% 0.00 in 0 W/m2
03:50 56.3 °F 52.5 °F 29.71 in NW 6 mph 6 mph 87% 0.00 in 0 W/m2
03:55 55.1 °F 50 °F 29.70 in NW 8 mph 11 mph 83% 0.00 in 0 W/m2
04:00 54.4 °F 49.3 °F 29.69 in NNW 9 mph 9 mph 83% 0.00 in 0 W/m2
04:05 53.9 °F 48.9 °F 29.70 in NW 9 mph 9 mph 83% 0.00 in 0 W/m2
04:10 53.5 °F 48.5 °F 29.70 in West 7 mph 12 mph 83% 0.00 in 0 W/m2
04:15 53.4 °F 49 °F 29.71 in NW 7 mph 12 mph 85% 0.00 in 0 W/m2
04:20 53.3 °F 48.9 °F 29.71 in NNW 7 mph 15 mph 85% 0.00 in 0 W/m2
04:25 52.9 °F 48.2 °F 29.71 in WNW 7 mph 15 mph 84% 0.00 in 0 W/m2
04:30 52.6 °F 47.9 °F 29.72 in NW 6 mph 9 mph 84% 0.00 in 0 W/m2
04:35 52.3 °F 47.6 °F 29.71 in NW 7 mph 9 mph 84% 0.09 in 0 W/m2
04:40 52.2 °F 47.5 °F 29.72 in WNW 7 mph 7 mph 84% 0.13 in 0 W/m2
04:45 51.8 °F 47.1 °F 29.72 in NW 6 mph 11 mph 84% 0.15 in 0 W/m2
04:50 51.7 °F 47.3 °F 29.72 in NW 7 mph 7 mph 85% 0.12 in 0 W/m2
Sand Point, Michigan, USA
Compliments of Weather Underground - 2 mb